LTAF Airport Information

Runway Information
Runway 05 Length 9022 ft width 148 ft
Elevation 54 ft Threshold 0 ft Heading 54
Runway 23 Length 9022 ft Width 148 ft
Elevation 65 ft Threshold 0 ft Heading 234
Airport Frequencies
Type APP Name INCIRLIK A Frequency 126.5 MHZ
Type ATIS Name Frequency 119.225 MHZ
Type GND Name Frequency 121.9 MHZ
Type TWR Name TWR Frequency 121.1 MHZ
Airport Navaids
Type VOR-DME Name Adana Frequency 112700 KHZ
Type NDB Name Adana Frequency 395 KHZ
Airport Weather Information & NOTAM
ADDS - METARS form results

(0246 UTC 23 August 2019)
Data provider http://aviationweather.gov/metar/data/
 
METAR text: LTAF 230220Z VRB01KT 9999 SCT040 23/22 Q1007 NOSIG RMK RWY23 07004KT
Conditions at: LTAF (ADANA/SAKIRPASA , TR) observed 0220 UTC 23 August 2019
Temperature: 23.0°C (73°F)
Dewpoint: 22.0°C (72°F) [RH = 94%]
Pressure (altimeter): 29.73 inches Hg (1007.0 mb)
Winds: variable direction winds at 1 MPH (1 knots; 0.5 m/s)
Visibility: 6 or more miles (10+ km)
Ceiling: at least 12,000 feet AGL
Clouds: scattered clouds at 4000 feet AGL
Weather: no significant weather observed at this time

METAR text: LTAF 230150Z 00000KT 9999 FEW040 24/22 Q1007 NOSIG RMK RWY23 07003KT
Conditions at: LTAF (ADANA/SAKIRPASA , TR) observed 0150 UTC 23 August 2019
Temperature: 24.0°C (75°F)
Dewpoint: 22.0°C (72°F) [RH = 89%]
Pressure (altimeter): 29.73 inches Hg (1007.0 mb)
Winds: calm
Visibility: 6 or more miles (10+ km)
Ceiling: at least 12,000 feet AGL
Clouds: few clouds at 4000 feet AGL
Weather: no significant weather observed at this time

Forecast for: LTAF (ADANA/SAKIRPASA , TR)
Text: TAF LTAF 222240Z 2300/2324 VRB02KT 9999 SCT035
Forecast period: 0000 to 0800 UTC 23 August 2019
Forecast type: FROM: standard forecast or significant change
Winds: variable direction winds at 2 MPH (2 knots; 1.0 m/s)
Visibility: 6 or more miles 10+ km)
Ceiling: at least 12,000 feet AGL
Clouds: scattered clouds at 3500 feet AGL
Weather: no significant weather forecast for this period
Text: BECMG 2308/2310 21012KT
Forecast period: 0800 to 1600 UTC 23 August 2019
Forecast type: BECOMING: Conditions expected to become as follows by 1000 UTC 23 August 2019
Winds: from the SSW (210 degrees) at 14 MPH (12 knots; 6.2 m/s)
Visibility: 6 or more miles 10+ km)
Ceiling: at least 12,000 feet AGL
Clouds: scattered clouds at 3500 feet AGL
Weather: no significant weather forecast for this period
Text: BECMG 2316/2318 VRB02KT
Forecast period: 1600 UTC 23 August 2019 to 0000 UTC 24 August 2019
Forecast type: BECOMING: Conditions expected to become as follows by 1800 UTC 23 August 2019
Winds: variable direction winds at 2 MPH (2 knots; 1.0 m/s)
Visibility: 6 or more miles 10+ km)
Ceiling: at least 12,000 feet AGL
Clouds: scattered clouds at 3500 feet AGL
Weather: no significant weather forecast for this period